sensor_id;sensor_type;location;lat;lon;timestamp;P1;durP1;ratioP1;P2;durP2;ratioP2
2756;SDS011;1386;50.862;6.494;2023-04-24T08:31:55;6.17;;;4.07;;
2756;SDS011;1386;50.862;6.494;2023-04-24T08:34:22;5.13;;;4.10;;
2756;SDS011;1386;50.862;6.494;2023-04-24T08:36:49;4.10;;;3.70;;
2756;SDS011;1386;50.862;6.494;2023-04-24T08:39:16;5.63;;;4.70;;
2756;SDS011;1386;50.862;6.494;2023-04-24T08:41:44;5.43;;;4.77;;
2756;SDS011;1386;50.862;6.494;2023-04-24T08:44:12;6.60;;;5.10;;
2756;SDS011;1386;50.862;6.494;2023-04-24T08:46:41;7.60;;;5.20;;
2756;SDS011;1386;50.862;6.494;2023-04-24T08:49:11;7.67;;;5.20;;
2756;SDS011;1386;50.862;6.494;2023-04-24T08:51:41;6.47;;;5.30;;
2756;SDS011;1386;50.862;6.494;2023-04-24T08:54:08;6.23;;;5.50;;
2756;SDS011;1386;50.862;6.494;2023-04-24T08:56:35;6.10;;;4.67;;
2756;SDS011;1386;50.862;6.494;2023-04-24T08:59:04;6.37;;;5.47;;
2756;SDS011;1386;50.862;6.494;2023-04-24T09:01:32;6.00;;;4.67;;
2756;SDS011;1386;50.862;6.494;2023-04-24T09:04:00;6.70;;;4.90;;
2756;SDS011;1386;50.862;6.494;2023-04-24T09:06:30;7.20;;;5.60;;
2756;SDS011;1386;50.862;6.494;2023-04-24T09:08:59;6.40;;;5.07;;
2756;SDS011;1386;50.862;6.494;2023-04-24T09:11:29;5.67;;;4.67;;
2756;SDS011;1386;50.862;6.494;2023-04-24T09:13:56;7.30;;;6.00;;
2756;SDS011;1386;50.862;6.494;2023-04-24T09:16:24;6.60;;;5.57;;
2756;SDS011;1386;50.862;6.494;2023-04-24T09:18:52;7.50;;;5.80;;
2756;SDS011;1386;50.862;6.494;2023-04-24T09:21:20;5.93;;;5.33;;
2756;SDS011;1386;50.862;6.494;2023-04-24T09:23:49;5.53;;;5.03;;
2756;SDS011;1386;50.862;6.494;2023-04-24T09:26:24;7.40;;;5.43;;
2756;SDS011;1386;50.862;6.494;2023-04-24T09:28:53;5.43;;;4.93;;
2756;SDS011;1386;50.862;6.494;2023-04-24T09:31:19;6.57;;;5.80;;
2756;SDS011;1386;50.862;6.494;2023-04-24T09:33:53;8.80;;;5.47;;
2756;SDS011;1386;50.862;6.494;2023-04-24T09:36:26;6.50;;;5.53;;
2756;SDS011;1386;50.862;6.494;2023-04-24T09:38:55;7.50;;;5.27;;
2756;SDS011;1386;50.862;6.494;2023-04-24T09:41:24;10.73;;;5.13;;
2756;SDS011;1386;50.862;6.494;2023-04-24T09:43:53;6.10;;;5.27;;
2756;SDS011;1386;50.862;6.494;2023-04-24T09:46:20;6.07;;;5.13;;
2756;SDS011;1386;50.862;6.494;2023-04-24T09:48:55;6.60;;;5.00;;
2756;SDS011;1386;50.862;6.494;2023-04-24T09:51:32;7.53;;;5.70;;
2756;SDS011;1386;50.862;6.494;2023-04-24T09:54:02;9.03;;;5.83;;
2756;SDS011;1386;50.862;6.494;2023-04-24T09:56:32;8.20;;;5.07;;
2756;SDS011;1386;50.862;6.494;2023-04-24T09:59:08;8.37;;;5.53;;
2756;SDS011;1386;50.862;6.494;2023-04-24T10:01:35;4.90;;;4.30;;
2756;SDS011;1386;50.862;6.494;2023-04-24T10:04:03;6.30;;;5.07;;
2756;SDS011;1386;50.862;6.494;2023-04-24T10:06:32;7.20;;;4.83;;
2756;SDS011;1386;50.862;6.494;2023-04-24T10:09:00;4.87;;;4.43;;
2756;SDS011;1386;50.862;6.494;2023-04-24T10:11:29;6.60;;;5.17;;
2756;SDS011;1386;50.862;6.494;2023-04-24T10:13:56;7.90;;;5.40;;
2756;SDS011;1386;50.862;6.494;2023-04-24T10:16:24;8.33;;;5.20;;
2756;SDS011;1386;50.862;6.494;2023-04-24T10:18:53;6.07;;;5.20;;
2756;SDS011;1386;50.862;6.494;2023-04-24T10:21:21;8.93;;;6.37;;
2756;SDS011;1386;50.862;6.494;2023-04-24T10:23:48;8.10;;;6.37;;
2756;SDS011;1386;50.862;6.494;2023-04-24T10:26:17;9.10;;;6.87;;
2756;SDS011;1386;50.862;6.494;2023-04-24T10:28:46;14.37;;;8.23;;
2756;SDS011;1386;50.862;6.494;2023-04-24T10:31:14;8.40;;;6.50;;
2756;SDS011;1386;50.862;6.494;2023-04-24T10:33:41;8.33;;;6.33;;
2756;SDS011;1386;50.862;6.494;2023-04-24T10:36:09;11.83;;;7.70;;
2756;SDS011;1386;50.862;6.494;2023-04-24T10:38:38;7.63;;;6.77;;
2756;SDS011;1386;50.862;6.494;2023-04-24T10:41:08;12.53;;;6.13;;
2756;SDS011;1386;50.862;6.494;2023-04-24T10:43:42;8.63;;;5.97;;
2756;SDS011;1386;50.862;6.494;2023-04-24T10:46:09;8.43;;;6.27;;
2756;SDS011;1386;50.862;6.494;2023-04-24T10:48:36;8.93;;;4.97;;
2756;SDS011;1386;50.862;6.494;2023-04-24T10:51:10;10.90;;;5.80;;
2756;SDS011;1386;50.862;6.494;2023-04-24T10:53:38;8.13;;;4.70;;
2756;SDS011;1386;50.862;6.494;2023-04-24T10:56:05;6.93;;;5.10;;
2756;SDS011;1386;50.862;6.494;2023-04-24T10:58:38;8.50;;;5.07;;
2756;SDS011;1386;50.862;6.494;2023-04-24T11:01:07;8.60;;;5.50;;
2756;SDS011;1386;50.862;6.494;2023-04-24T11:03:34;7.00;;;4.93;;
2756;SDS011;1386;50.862;6.494;2023-04-24T11:06:03;9.00;;;5.30;;
2756;SDS011;1386;50.862;6.494;2023-04-24T11:08:32;9.73;;;4.77;;
2756;SDS011;1386;50.862;6.494;2023-04-24T11:11:07;9.10;;;5.27;;
2756;SDS011;1386;50.862;6.494;2023-04-24T11:14:00;9.80;;;5.30;;
2756;SDS011;1386;50.862;6.494;2023-04-24T11:16:30;10.73;;;5.50;;
2756;SDS011;1386;50.862;6.494;2023-04-24T11:19:02;8.63;;;5.17;;
2756;SDS011;1386;50.862;6.494;2023-04-24T11:21:31;10.40;;;5.90;;
2756;SDS011;1386;50.862;6.494;2023-04-24T11:26:54;8.50;;;6.50;;
2756;SDS011;1386;50.862;6.494;2023-04-24T11:29:21;8.40;;;5.80;;
2756;SDS011;1386;50.862;6.494;2023-04-24T11:31:50;9.33;;;5.87;;
2756;SDS011;1386;50.862;6.494;2023-04-24T11:34:17;11.83;;;7.43;;
2756;SDS011;1386;50.862;6.494;2023-04-24T11:36:44;11.93;;;7.40;;
2756;SDS011;1386;50.862;6.494;2023-04-24T11:39:12;13.40;;;8.10;;
2756;SDS011;1386;50.862;6.494;2023-04-24T11:41:40;10.73;;;6.77;;
2756;SDS011;1386;50.862;6.494;2023-04-24T11:44:08;11.30;;;7.10;;
2756;SDS011;1386;50.862;6.494;2023-04-24T11:46:36;10.00;;;7.70;;
2756;SDS011;1386;50.862;6.494;2023-04-24T11:49:06;15.27;;;7.93;;
2756;SDS011;1386;50.862;6.494;2023-04-24T11:51:33;10.27;;;7.10;;
2756;SDS011;1386;50.862;6.494;2023-04-24T11:54:00;14.03;;;6.83;;
2756;SDS011;1386;50.862;6.494;2023-04-24T11:56:28;8.57;;;5.73;;
2756;SDS011;1386;50.862;6.494;2023-04-24T11:58:55;10.93;;;5.70;;
2756;SDS011;1386;50.862;6.494;2023-04-24T12:01:22;10.60;;;5.87;;
2756;SDS011;1386;50.862;6.494;2023-04-24T12:03:49;9.40;;;6.27;;
2756;SDS011;1386;50.862;6.494;2023-04-24T12:06:18;7.00;;;4.70;;
2756;SDS011;1386;50.862;6.494;2023-04-24T12:08:45;7.80;;;5.40;;
2756;SDS011;1386;50.862;6.494;2023-04-24T12:11:14;10.60;;;4.93;;
2756;SDS011;1386;50.862;6.494;2023-04-24T12:13:44;11.00;;;4.97;;
2756;SDS011;1386;50.862;6.494;2023-04-24T12:16:11;6.80;;;4.80;;
2756;SDS011;1386;50.862;6.494;2023-04-24T12:18:42;5.80;;;5.20;;
2756;SDS011;1386;50.862;6.494;2023-04-24T12:21:14;11.40;;;5.40;;
2756;SDS011;1386;50.862;6.494;2023-04-24T12:23:44;8.33;;;5.73;;
2756;SDS011;1386;50.862;6.494;2023-04-24T12:26:11;9.50;;;5.47;;
2756;SDS011;1386;50.862;6.494;2023-04-24T12:28:38;9.50;;;5.60;;
2756;SDS011;1386;50.862;6.494;2023-04-24T12:31:06;8.37;;;6.10;;
2756;SDS011;1386;50.862;6.494;2023-04-24T12:33:33;10.10;;;7.00;;
2756;SDS011;1386;50.862;6.494;2023-04-24T12:36:01;6.40;;;5.43;;
2756;SDS011;1386;50.862;6.494;2023-04-24T12:38:28;7.20;;;5.30;;
2756;SDS011;1386;50.862;6.494;2023-04-24T12:41:04;7.90;;;4.83;;
2756;SDS011;1386;50.862;6.494;2023-04-24T12:43:32;7.70;;;4.23;;
2756;SDS011;1386;50.862;6.494;2023-04-24T12:45:59;8.80;;;5.57;;
2756;SDS011;1386;50.862;6.494;2023-04-24T12:48:26;6.00;;;4.63;;
2756;SDS011;1386;50.862;6.494;2023-04-24T12:50:53;8.60;;;4.50;;
2756;SDS011;1386;50.862;6.494;2023-04-24T12:53:20;10.10;;;5.17;;
2756;SDS011;1386;50.862;6.494;2023-04-24T12:55:47;8.17;;;5.57;;
2756;SDS011;1386;50.862;6.494;2023-04-24T12:58:19;7.97;;;5.40;;
2756;SDS011;1386;50.862;6.494;2023-04-24T13:00:46;11.80;;;5.60;;
2756;SDS011;1386;50.862;6.494;2023-04-24T13:03:13;7.97;;;5.43;;
2756;SDS011;1386;50.862;6.494;2023-04-24T13:05:41;8.70;;;5.50;;
2756;SDS011;1386;50.862;6.494;2023-04-24T13:08:08;11.00;;;5.17;;
2756;SDS011;1386;50.862;6.494;2023-04-24T13:10:36;12.40;;;6.00;;
2756;SDS011;1386;50.862;6.494;2023-04-24T13:13:03;7.90;;;6.20;;
2756;SDS011;1386;50.862;6.494;2023-04-24T13:15:31;8.97;;;5.97;;
2756;SDS011;1386;50.862;6.494;2023-04-24T13:17:58;11.80;;;6.23;;
2756;SDS011;1386;50.862;6.494;2023-04-24T13:20:25;9.63;;;5.53;;
2756;SDS011;1386;50.862;6.494;2023-04-24T13:22:52;8.93;;;5.10;;
2756;SDS011;1386;50.862;6.494;2023-04-24T13:25:19;11.33;;;6.30;;
2756;SDS011;1386;50.862;6.494;2023-04-24T13:27:47;13.03;;;6.23;;
2756;SDS011;1386;50.862;6.494;2023-04-24T13:30:14;11.57;;;5.90;;
2756;SDS011;1386;50.862;6.494;2023-04-24T13:32:42;8.70;;;6.30;;
2756;SDS011;1386;50.862;6.494;2023-04-24T13:35:09;13.10;;;6.93;;
2756;SDS011;1386;50.862;6.494;2023-04-24T13:37:36;6.37;;;5.50;;
2756;SDS011;1386;50.862;6.494;2023-04-24T13:40:03;8.20;;;5.50;;
2756;SDS011;1386;50.862;6.494;2023-04-24T13:42:32;8.37;;;5.33;;
2756;SDS011;1386;50.862;6.494;2023-04-24T13:44:59;10.03;;;5.20;;
2756;SDS011;1386;50.862;6.494;2023-04-24T13:47:26;8.40;;;5.57;;
2756;SDS011;1386;50.862;6.494;2023-04-24T13:49:54;7.20;;;6.40;;
2756;SDS011;1386;50.862;6.494;2023-04-24T13:52:21;7.20;;;4.80;;
2756;SDS011;1386;50.862;6.494;2023-04-24T13:54:47;13.60;;;5.90;;
2756;SDS011;1386;50.862;6.494;2023-04-24T13:57:14;7.20;;;4.90;;
2756;SDS011;1386;50.862;6.494;2023-04-24T13:59:42;8.07;;;5.10;;
2756;SDS011;1386;50.862;6.494;2023-04-24T14:02:10;7.10;;;4.87;;
2756;SDS011;1386;50.862;6.494;2023-04-24T14:04:37;6.10;;;4.27;;
2756;SDS011;1386;50.862;6.494;2023-04-24T14:07:05;9.20;;;5.80;;
2756;SDS011;1386;50.862;6.494;2023-04-24T14:09:33;5.83;;;4.50;;
2756;SDS011;1386;50.862;6.494;2023-04-24T14:12:00;7.00;;;4.93;;
2756;SDS011;1386;50.862;6.494;2023-04-24T14:14:28;6.13;;;4.30;;
2756;SDS011;1386;50.862;6.494;2023-04-24T14:16:55;6.20;;;4.33;;
2756;SDS011;1386;50.862;6.494;2023-04-24T14:19:23;7.60;;;4.93;;
2756;SDS011;1386;50.862;6.494;2023-04-24T14:21:50;6.73;;;4.27;;
2756;SDS011;1386;50.862;6.494;2023-04-24T14:24:18;12.37;;;4.97;;
2756;SDS011;1386;50.862;6.494;2023-04-24T14:26:45;5.93;;;5.13;;
2756;SDS011;1386;50.862;6.494;2023-04-24T14:29:12;8.20;;;5.10;;
2756;SDS011;1386;50.862;6.494;2023-04-24T17:32:09;4.67;;;3.30;;
2756;SDS011;1386;50.862;6.494;2023-04-24T17:34:36;9.93;;;4.67;;
2756;SDS011;1386;50.862;6.494;2023-04-24T17:37:04;5.83;;;4.60;;
2756;SDS011;1386;50.862;6.494;2023-04-24T17:39:30;5.07;;;3.33;;
2756;SDS011;1386;50.862;6.494;2023-04-24T17:41:58;4.53;;;3.23;;
2756;SDS011;1386;50.862;6.494;2023-04-24T17:44:27;4.00;;;3.43;;
2756;SDS011;1386;50.862;6.494;2023-04-24T17:46:55;4.70;;;3.30;;
2756;SDS011;1386;50.862;6.494;2023-04-24T17:49:22;4.13;;;3.10;;
2756;SDS011;1386;50.862;6.494;2023-04-24T17:51:50;2.90;;;2.60;;
2756;SDS011;1386;50.862;6.494;2023-04-24T17:54:16;4.87;;;2.70;;
2756;SDS011;1386;50.862;6.494;2023-04-24T17:56:44;3.10;;;2.80;;
2756;SDS011;1386;50.862;6.494;2023-04-24T17:59:11;5.37;;;3.67;;
2756;SDS011;1386;50.862;6.494;2023-04-24T18:01:41;5.67;;;3.17;;
2756;SDS011;1386;50.862;6.494;2023-04-24T18:04:09;5.03;;;3.53;;
2756;SDS011;1386;50.862;6.494;2023-04-24T18:06:36;5.87;;;3.20;;
2756;SDS011;1386;50.862;6.494;2023-04-24T18:09:04;3.13;;;2.80;;
2756;SDS011;1386;50.862;6.494;2023-04-24T18:11:34;4.27;;;2.80;;
2756;SDS011;1386;50.862;6.494;2023-04-24T18:14:01;3.50;;;2.70;;
2756;SDS011;1386;50.862;6.494;2023-04-24T18:16:28;5.73;;;3.50;;
2756;SDS011;1386;50.862;6.494;2023-04-24T18:18:55;11.53;;;3.27;;
2756;SDS011;1386;50.862;6.494;2023-04-24T18:21:29;5.13;;;3.43;;
2756;SDS011;1386;50.862;6.494;2023-04-24T18:23:56;4.83;;;2.73;;
2756;SDS011;1386;50.862;6.494;2023-04-24T18:26:24;4.13;;;2.93;;
2756;SDS011;1386;50.862;6.494;2023-04-24T18:28:51;5.10;;;3.37;;
2756;SDS011;1386;50.862;6.494;2023-04-24T18:31:39;4.87;;;3.10;;
2756;SDS011;1386;50.862;6.494;2023-04-24T18:34:58;2.57;;;2.37;;
2756;SDS011;1386;50.862;6.494;2023-04-24T18:37:36;5.10;;;2.90;;
2756;SDS011;1386;50.862;6.494;2023-04-24T18:40:05;3.63;;;2.80;;
2756;SDS011;1386;50.862;6.494;2023-04-24T18:42:33;4.47;;;2.93;;
2756;SDS011;1386;50.862;6.494;2023-04-24T18:47:59;4.67;;;3.50;;
2756;SDS011;1386;50.862;6.494;2023-04-24T18:50:27;8.63;;;3.53;;
2756;SDS011;1386;50.862;6.494;2023-04-24T18:52:57;5.23;;;3.33;;
2756;SDS011;1386;50.862;6.494;2023-04-24T18:55:25;5.90;;;3.47;;
2756;SDS011;1386;50.862;6.494;2023-04-24T18:57:52;5.73;;;3.07;;
2756;SDS011;1386;50.862;6.494;2023-04-24T19:00:19;5.03;;;3.50;;
2756;SDS011;1386;50.862;6.494;2023-04-24T19:02:46;3.23;;;2.93;;
2756;SDS011;1386;50.862;6.494;2023-04-24T19:05:17;4.70;;;3.17;;
2756;SDS011;1386;50.862;6.494;2023-04-24T19:07:44;4.03;;;3.20;;
2756;SDS011;1386;50.862;6.494;2023-04-24T19:10:16;4.23;;;3.40;;
2756;SDS011;1386;50.862;6.494;2023-04-24T19:12:46;4.67;;;3.43;;
2756;SDS011;1386;50.862;6.494;2023-04-24T19:15:13;5.10;;;4.10;;
2756;SDS011;1386;50.862;6.494;2023-04-24T19:17:41;4.40;;;3.00;;
2756;SDS011;1386;50.862;6.494;2023-04-24T19:20:09;5.00;;;2.63;;
2756;SDS011;1386;50.862;6.494;2023-04-24T19:22:39;4.07;;;3.37;;
